createdAt,value
2023-01-21T00:00:41.734Z,98691.00
2023-01-21T00:03:09.417Z,98697.00
2023-01-21T00:05:35.958Z,98699.00
2023-01-21T00:08:02.867Z,98698.00
2023-01-21T00:10:29.506Z,98699.00
2023-01-21T00:12:55.961Z,98711.00
2023-01-21T00:15:22.437Z,98709.00
2023-01-21T00:17:48.906Z,98713.00
2023-01-21T00:20:15.992Z,98707.00
2023-01-21T00:22:42.634Z,98715.00
2023-01-21T00:25:09.298Z,98712.00
2023-01-21T00:27:35.838Z,98717.00
2023-01-21T00:30:02.425Z,98719.00
2023-01-21T00:32:28.889Z,98723.00
2023-01-21T00:34:55.366Z,98717.00
2023-01-21T00:37:22.146Z,98727.00
2023-01-21T00:39:48.614Z,98723.00
2023-01-21T00:42:15.073Z,98728.00
2023-01-21T00:44:41.559Z,98740.00
2023-01-21T00:47:08.038Z,98741.00
2023-01-21T00:49:34.549Z,98732.00
2023-01-21T00:52:01.333Z,98738.00
2023-01-21T00:54:27.869Z,98750.00
2023-01-21T00:56:54.508Z,98746.00
2023-01-21T00:59:21.061Z,98746.00
2023-01-21T01:01:47.555Z,98748.00
2023-01-21T01:04:14.477Z,98747.00
2023-01-21T01:06:40.993Z,98750.00
2023-01-21T01:09:07.892Z,98751.00
2023-01-21T01:11:34.404Z,98757.00
2023-01-21T01:14:00.872Z,98758.00
2023-01-21T01:16:27.524Z,98761.00
2023-01-21T01:18:55.308Z,98766.00
2023-01-21T01:21:22.450Z,98769.00
2023-01-21T01:23:52.258Z,98772.00
2023-01-21T01:26:20.258Z,98776.00
2023-01-21T01:28:47.095Z,98776.00
2023-01-21T01:31:16.380Z,98792.00
2023-01-21T01:33:43.202Z,98782.00
2023-01-21T01:36:21.018Z,98787.00
2023-01-21T01:38:47.480Z,98797.00
2023-01-21T01:41:27.315Z,98804.00
2023-01-21T01:44:01.424Z,98798.00
2023-01-21T01:46:30.534Z,98808.00
2023-01-21T01:49:03.821Z,98816.00
2023-01-21T01:51:36.453Z,98814.00
2023-01-21T01:54:03.109Z,98810.00
2023-01-21T01:56:30.412Z,98813.00
2023-01-21T01:58:57.193Z,98817.00
2023-01-21T02:01:24.047Z,98823.00
2023-01-21T02:03:59.219Z,98837.00
2023-01-21T02:06:26.728Z,98832.00
2023-01-21T02:08:54.148Z,98837.00
2023-01-21T02:11:20.968Z,98848.00
2023-01-21T02:13:53.119Z,98837.00
2023-01-21T02:16:46.240Z,98847.00
2023-01-21T02:19:27.625Z,98855.00
2023-01-21T02:22:19.131Z,98860.00
2023-01-21T02:24:54.102Z,98862.00
2023-01-21T02:27:46.586Z,98864.00
2023-01-21T02:30:28.391Z,98872.00
2023-01-21T02:33:22.891Z,98870.00
2023-01-21T02:36:27.486Z,98876.00
2023-01-21T02:39:06.658Z,98885.00
2023-01-21T02:41:35.883Z,98888.00
2023-01-21T02:44:30.284Z,98896.00
2023-01-21T02:47:09.496Z,98895.00
2023-01-21T02:49:47.373Z,98898.00
2023-01-21T02:52:18.751Z,98899.00
2023-01-21T02:54:53.559Z,98906.00
2023-01-21T02:57:26.921Z,98906.00
2023-01-21T02:59:55.381Z,98917.00
2023-01-21T03:02:38.897Z,98919.00
2023-01-21T03:05:21.005Z,98927.00
2023-01-21T03:08:06.977Z,98926.00
2023-01-21T03:10:40.708Z,98921.00
2023-01-21T03:13:14.962Z,98926.00
2023-01-21T03:16:06.788Z,98935.00
2023-01-21T03:18:38.323Z,98933.00
2023-01-21T03:21:09.212Z,98942.00
2023-01-21T03:23:43.334Z,98942.00
2023-01-21T03:26:12.250Z,98952.00
2023-01-21T03:28:44.026Z,98952.00
2023-01-21T03:31:18.168Z,98942.00
2023-01-21T03:33:46.942Z,98949.00
2023-01-21T03:36:26.530Z,98964.00
2023-01-21T03:38:56.369Z,98962.00
2023-01-21T03:41:28.517Z,98969.00
2023-01-21T03:43:55.061Z,98971.00
2023-01-21T03:46:38.376Z,98966.00
2023-01-21T03:49:33.446Z,98972.00
2023-01-21T03:52:01.746Z,98975.00
2023-01-21T03:54:28.290Z,98978.00
2023-01-21T03:56:54.767Z,98978.00
2023-01-21T03:59:21.290Z,98979.00
2023-01-21T04:01:47.809Z,98982.00
2023-01-21T04:04:14.247Z,98988.00
2023-01-21T04:06:40.763Z,98977.00
2023-01-21T04:09:07.734Z,98988.00
2023-01-21T04:11:34.464Z,98991.00
2023-01-21T04:14:01.237Z,99000.00
2023-01-21T04:16:27.860Z,99000.00
2023-01-21T04:18:54.420Z,99011.00
2023-01-21T04:21:21.011Z,99012.00
2023-01-21T04:23:47.570Z,99004.00
2023-01-21T04:26:14.052Z,99008.00
2023-01-21T04:28:42.000Z,99019.00
2023-01-21T04:31:08.562Z,99018.00
2023-01-21T04:33:35.039Z,99025.00
2023-01-21T04:36:01.550Z,99030.00
2023-01-21T04:38:28.455Z,99024.00
2023-01-21T04:40:54.938Z,99042.00
2023-01-21T04:43:21.494Z,99030.00
2023-01-21T04:45:50.079Z,99034.00
2023-01-21T04:48:17.700Z,99041.00
2023-01-21T04:50:45.773Z,99043.00
2023-01-21T04:53:12.290Z,99042.00
2023-01-21T04:55:38.777Z,99041.00
2023-01-21T04:58:05.247Z,99050.00
2023-01-21T05:00:31.682Z,99048.00
2023-01-21T05:02:58.217Z,99050.00
2023-01-21T05:05:24.784Z,99063.00
2023-01-21T05:07:54.298Z,99059.00
2023-01-21T05:10:21.183Z,99060.00
2023-01-21T05:12:48.631Z,99058.00
2023-01-21T05:15:15.470Z,99066.00
2023-01-21T05:17:42.075Z,99065.00
2023-01-21T05:20:09.422Z,99068.00
2023-01-21T05:22:35.885Z,99065.00
2023-01-21T05:25:02.399Z,99080.00
2023-01-21T05:27:28.971Z,99085.00
2023-01-21T05:29:56.928Z,99083.00
2023-01-21T05:32:23.552Z,99081.00
2023-01-21T05:34:50.022Z,99091.00
2023-01-21T05:37:16.570Z,99092.00
2023-01-21T05:39:43.552Z,99097.00
2023-01-21T05:42:10.272Z,99114.00
2023-01-21T05:44:36.729Z,99112.00
2023-01-21T05:47:03.236Z,99119.00
2023-01-21T05:49:29.674Z,99109.00
2023-01-21T05:51:56.182Z,99121.00
2023-01-21T05:54:22.661Z,99124.00
2023-01-21T05:56:49.157Z,99123.00
2023-01-21T05:59:15.612Z,99131.00
2023-01-21T06:01:42.105Z,99136.00
2023-01-21T06:04:08.602Z,99135.00
2023-01-21T06:06:35.210Z,99136.00
2023-01-21T06:09:01.698Z,99134.00
2023-01-21T06:11:28.173Z,99138.00
2023-01-21T06:13:54.653Z,99141.00
2023-01-21T06:16:21.127Z,99153.00
2023-01-21T06:18:47.669Z,99153.00
2023-01-21T06:21:14.107Z,99161.00
2023-01-21T06:23:40.932Z,99173.00
2023-01-21T06:26:07.435Z,99165.00
2023-01-21T06:28:33.935Z,99168.00
2023-01-21T06:31:00.485Z,99168.00
2023-01-21T06:33:27.033Z,99179.00
2023-01-21T06:35:53.500Z,99184.00
2023-01-21T06:38:20.077Z,99183.00
2023-01-21T06:40:46.543Z,99181.00
2023-01-21T06:43:13.163Z,99186.00
2023-01-21T06:45:39.729Z,99184.00
2023-01-21T06:48:06.359Z,99187.00
2023-01-21T06:50:32.847Z,99197.00
2023-01-21T06:52:59.363Z,99198.00
2023-01-21T06:55:25.861Z,99197.00
2023-01-21T06:57:52.359Z,99202.00
2023-01-21T07:00:19.597Z,99209.00
2023-01-21T07:02:46.269Z,99199.00
2023-01-21T07:05:14.852Z,99203.00
2023-01-21T07:07:41.612Z,99197.00
2023-01-21T07:10:09.110Z,99198.00
2023-01-21T07:12:35.638Z,99215.00
2023-01-21T07:15:02.121Z,99218.00
2023-01-21T07:17:28.616Z,99213.00
2023-01-21T07:19:55.108Z,99220.00
2023-01-21T07:22:21.605Z,99220.00
2023-01-21T07:24:48.080Z,99220.00
2023-01-21T07:27:14.557Z,99224.00
2023-01-21T07:29:41.050Z,99233.00
2023-01-21T07:32:07.572Z,99243.00
2023-01-21T07:34:34.090Z,99242.00
2023-01-21T07:37:00.629Z,99241.00
2023-01-21T07:39:27.220Z,99242.00
2023-01-21T07:41:53.799Z,99248.00
2023-01-21T07:44:20.257Z,99250.00
2023-01-21T07:46:46.871Z,99244.00
2023-01-21T07:49:17.207Z,99257.00
2023-01-21T07:51:47.869Z,99261.00
2023-01-21T07:54:15.100Z,99263.00
2023-01-21T07:56:41.628Z,99264.00
2023-01-21T07:59:10.494Z,99271.00
2023-01-21T08:01:36.974Z,99268.00
2023-01-21T08:04:03.557Z,99277.00
2023-01-21T08:06:30.122Z,99261.00
2023-01-21T08:08:56.565Z,99261.00
2023-01-21T08:11:23.113Z,99274.00
2023-01-21T08:13:50.373Z,99278.00
2023-01-21T08:16:17.013Z,99266.00
2023-01-21T08:18:43.563Z,99282.00
2023-01-21T08:21:10.042Z,99274.00
2023-01-21T08:23:36.551Z,99274.00
2023-01-21T08:26:04.356Z,99282.00
2023-01-21T08:28:31.073Z,99293.00
2023-01-21T08:31:26.468Z,99293.00
2023-01-21T08:33:53.096Z,99291.00
2023-01-21T08:36:19.554Z,99289.00
2023-01-21T08:38:48.551Z,99305.00
2023-01-21T08:41:16.506Z,99307.00
2023-01-21T08:43:43.040Z,99304.00
2023-01-21T08:46:09.542Z,99310.00
2023-01-21T08:48:38.229Z,99310.00
2023-01-21T08:51:05.400Z,99315.00
2023-01-21T08:53:32.300Z,99317.00
2023-01-21T08:56:03.722Z,99313.00
2023-01-21T08:58:31.527Z,99323.00
2023-01-21T09:00:58.652Z,99319.00
2023-01-21T09:03:25.277Z,99321.00
2023-01-21T09:05:51.883Z,99327.00
2023-01-21T09:08:18.852Z,99326.00
2023-01-21T09:11:00.812Z,99334.00
2023-01-21T09:13:38.494Z,99319.00
2023-01-21T09:16:09.650Z,99328.00
2023-01-21T09:18:37.401Z,99328.00
2023-01-21T09:21:05.808Z,99332.00
2023-01-21T09:23:34.521Z,99341.00
2023-01-21T09:26:04.225Z,99334.00
2023-01-21T09:28:32.862Z,99332.00
2023-01-21T09:31:01.671Z,99338.00
2023-01-21T09:33:29.827Z,99342.00
2023-01-21T09:35:58.807Z,99351.00
2023-01-21T09:38:26.128Z,99348.00
2023-01-21T09:40:53.458Z,99353.00
2023-01-21T09:43:25.193Z,99353.00
2023-01-21T09:45:54.098Z,99358.00
2023-01-21T09:48:28.609Z,99362.00
2023-01-21T09:50:57.100Z,99364.00
2023-01-21T09:53:32.258Z,99364.00
2023-01-21T09:56:02.178Z,99370.00
2023-01-21T09:58:40.791Z,99374.00
2023-01-21T10:01:31.085Z,99373.00
2023-01-21T10:04:40.605Z,99377.00
2023-01-21T10:07:18.113Z,99383.00
2023-01-21T10:09:55.624Z,99389.00
2023-01-21T10:13:02.161Z,99385.00
2023-01-21T10:15:41.593Z,99384.00
2023-01-21T10:18:31.084Z,99394.00
2023-01-21T10:21:15.296Z,99398.00
2023-01-21T10:23:51.924Z,99405.00
2023-01-21T10:26:18.436Z,99390.00
2023-01-21T10:28:50.553Z,99400.00
2023-01-21T10:31:28.697Z,99387.00
2023-01-21T10:33:56.050Z,99403.00
2023-01-21T10:36:50.988Z,99402.00
2023-01-21T10:39:22.908Z,99394.00
2023-01-21T10:42:23.468Z,99398.00
2023-01-21T10:45:27.558Z,99392.00
2023-01-21T10:48:20.945Z,99396.00
2023-01-21T10:51:15.462Z,99393.00
2023-01-21T10:54:01.811Z,99397.00
2023-01-21T10:56:37.421Z,99390.00
2023-01-21T10:59:10.851Z,99382.00
2023-01-21T11:01:40.939Z,99390.00
2023-01-21T11:04:28.301Z,99381.00
2023-01-21T11:07:00.976Z,99384.00
2023-01-21T11:09:31.863Z,99380.00
2023-01-21T11:11:58.359Z,99383.00
2023-01-21T11:14:25.880Z,99384.00
2023-01-21T11:16:53.325Z,99383.00
2023-01-21T11:19:22.866Z,99381.00
2023-01-21T11:22:19.970Z,99389.00
2023-01-21T11:24:51.556Z,99388.00
2023-01-21T11:27:38.201Z,99381.00
2023-01-21T11:30:25.885Z,99373.00
2023-01-21T11:32:53.541Z,99365.00
2023-01-21T11:35:23.446Z,99378.00
2023-01-21T11:37:50.144Z,99380.00
2023-01-21T11:40:25.527Z,99373.00
2023-01-21T11:42:56.624Z,99373.00
2023-01-21T11:45:36.639Z,99366.00
2023-01-21T11:48:19.535Z,99371.00
2023-01-21T11:50:46.115Z,99375.00
2023-01-21T11:53:17.374Z,99373.00
2023-01-21T11:55:54.197Z,99372.00
2023-01-21T11:58:25.445Z,99374.00
2023-01-21T12:00:56.411Z,99374.00
2023-01-21T12:03:27.490Z,99369.00
2023-01-21T12:05:54.116Z,99384.00
2023-01-21T12:08:27.253Z,99376.00
2023-01-21T12:10:56.252Z,99370.00
2023-01-21T12:13:27.629Z,99375.00
2023-01-21T12:16:15.103Z,99379.00
2023-01-21T12:19:16.695Z,99375.00
2023-01-21T12:21:52.346Z,99376.00
2023-01-21T12:24:37.254Z,99372.00
2023-01-21T12:27:24.377Z,99374.00
2023-01-21T12:30:08.453Z,99374.00
2023-01-21T12:32:48.446Z,99379.00
2023-01-21T12:35:30.082Z,99378.00
2023-01-21T12:38:06.115Z,99383.00
2023-01-21T12:40:41.551Z,99379.00
2023-01-21T12:43:41.942Z,99386.00
2023-01-21T12:46:34.945Z,99384.00
2023-01-21T12:49:20.637Z,99377.00
2023-01-21T12:51:53.024Z,99375.00
2023-01-21T12:54:31.065Z,99370.00
2023-01-21T12:57:04.844Z,99385.00
2023-01-21T12:59:42.206Z,99384.00
2023-01-21T13:02:34.337Z,99382.00
2023-01-21T13:05:13.831Z,99390.00
2023-01-21T13:07:52.725Z,99382.00
2023-01-21T13:10:28.981Z,99371.00
2023-01-21T13:13:02.243Z,99384.00
2023-01-21T13:15:33.172Z,99378.00
2023-01-21T13:18:05.004Z,99384.00
2023-01-21T13:20:38.726Z,99382.00
2023-01-21T13:23:17.631Z,99390.00
2023-01-21T13:26:06.775Z,99389.00
2023-01-21T13:28:44.889Z,99396.00
2023-01-21T13:31:19.913Z,99391.00
2023-01-21T13:33:57.660Z,99396.00
2023-01-21T13:36:53.446Z,99402.00
2023-01-21T13:39:44.000Z,99407.00
2023-01-21T13:42:49.315Z,99414.00
2023-01-21T13:45:28.955Z,99414.00
2023-01-21T13:48:23.159Z,99423.00
2023-01-21T13:50:58.753Z,99418.00
2023-01-21T13:54:11.366Z,99420.00
2023-01-21T13:57:03.078Z,99423.00
2023-01-21T13:59:53.988Z,99430.00
2023-01-21T14:02:45.621Z,99422.00
2023-01-21T14:05:30.466Z,99423.00
2023-01-21T14:08:12.773Z,99422.00
2023-01-21T14:11:17.446Z,99422.00
2023-01-21T14:14:13.247Z,99413.00
2023-01-21T14:16:59.570Z,99428.00
2023-01-21T14:19:35.058Z,99433.00
2023-01-21T14:22:17.273Z,99432.00
2023-01-21T14:24:54.958Z,99437.00
2023-01-21T14:27:36.460Z,99430.00
2023-01-21T14:30:15.807Z,99419.00
2023-01-21T14:32:50.405Z,99420.00
2023-01-21T14:35:27.523Z,99417.00
2023-01-21T14:38:24.164Z,99424.00
2023-01-21T14:41:02.626Z,99420.00
2023-01-21T14:43:32.179Z,99432.00
2023-01-21T14:46:00.896Z,99427.00
2023-01-21T14:48:33.683Z,99427.00
2023-01-21T14:51:06.372Z,99425.00
2023-01-21T14:54:04.091Z,99432.00
2023-01-21T14:56:37.127Z,99429.00
2023-01-21T14:59:35.567Z,99438.00
2023-01-21T15:02:19.162Z,99437.00
2023-01-21T15:04:55.627Z,99437.00
2023-01-21T15:07:24.954Z,99430.00
2023-01-21T15:09:56.729Z,99439.00
2023-01-21T15:12:28.477Z,99437.00
2023-01-21T15:14:59.227Z,99438.00
2023-01-21T15:17:45.949Z,99446.00
2023-01-21T15:20:43.872Z,99447.00
2023-01-21T15:23:29.323Z,99453.00
2023-01-21T15:26:08.217Z,99457.00
2023-01-21T15:28:47.936Z,99460.00
2023-01-21T15:31:20.603Z,99451.00
2023-01-21T15:33:53.695Z,99459.00
2023-01-21T15:36:24.760Z,99452.00
2023-01-21T15:38:54.037Z,99461.00
2023-01-21T15:41:43.924Z,99456.00
2023-01-21T15:44:44.100Z,99452.00
2023-01-21T15:47:20.356Z,99458.00
2023-01-21T15:49:53.299Z,99457.00
2023-01-21T15:53:22.977Z,99465.00
2023-01-21T15:56:14.953Z,99470.00
2023-01-21T15:58:53.728Z,99475.00
2023-01-21T16:01:23.109Z,99471.00
2023-01-21T16:04:21.745Z,99471.00
2023-01-21T16:07:00.386Z,99470.00
2023-01-21T16:09:52.408Z,99468.00
2023-01-21T16:12:28.033Z,99473.00
2023-01-21T16:15:04.832Z,99472.00
2023-01-21T16:17:57.541Z,99486.00
2023-01-21T16:20:24.191Z,99481.00
2023-01-21T16:22:56.515Z,99482.00
2023-01-21T16:25:25.222Z,99483.00
2023-01-21T16:27:53.992Z,99483.00
2023-01-21T16:30:26.045Z,99484.00
2023-01-21T16:33:13.441Z,99486.00
2023-01-21T16:35:51.554Z,99479.00
2023-01-21T16:38:24.729Z,99482.00
2023-01-21T16:41:18.208Z,99485.00
2023-01-21T16:44:15.072Z,99480.00
2023-01-21T16:46:41.707Z,99489.00
2023-01-21T16:49:16.129Z,99489.00
2023-01-21T16:51:53.982Z,99483.00
2023-01-21T16:54:27.584Z,99492.00
2023-01-21T16:57:02.794Z,99490.00
2023-01-21T16:59:41.302Z,99490.00
2023-01-21T17:02:31.461Z,99489.00
2023-01-21T17:05:00.533Z,99491.00
2023-01-21T17:07:31.220Z,99491.00
2023-01-21T17:10:19.319Z,99500.00
2023-01-21T17:12:58.552Z,99503.00
2023-01-21T17:15:36.474Z,99501.00
2023-01-21T17:18:03.980Z,99493.00
2023-01-21T17:20:58.949Z,99501.00
2023-01-21T17:23:30.212Z,99493.00
2023-01-21T17:26:26.082Z,99507.00
2023-01-21T17:28:59.678Z,99502.00
2023-01-21T17:31:29.584Z,99491.00
2023-01-21T17:34:15.654Z,99499.00
2023-01-21T17:36:44.610Z,99499.00
2023-01-21T17:39:12.068Z,99496.00
2023-01-21T17:41:41.146Z,99489.00
2023-01-21T17:44:18.875Z,99480.00
2023-01-21T17:46:47.570Z,99493.00
2023-01-21T17:49:20.095Z,99492.00
2023-01-21T17:51:47.252Z,99492.00
2023-01-21T17:54:21.358Z,99501.00
2023-01-21T17:56:53.769Z,99494.00
2023-01-21T17:59:34.042Z,99499.00
2023-01-21T18:02:02.202Z,99496.00
2023-01-21T18:04:29.377Z,99503.00
2023-01-21T18:06:56.299Z,99508.00
2023-01-21T18:09:24.413Z,99508.00
2023-01-21T18:11:53.570Z,99510.00
2023-01-21T18:14:22.495Z,99505.00
2023-01-21T18:16:48.991Z,99506.00
2023-01-21T18:19:37.610Z,99512.00
2023-01-21T18:22:06.329Z,99501.00
2023-01-21T18:24:33.212Z,99522.00
2023-01-21T18:27:01.653Z,99509.00
2023-01-21T18:29:30.456Z,99509.00
2023-01-21T18:31:57.730Z,99505.00
2023-01-21T18:34:24.272Z,99507.00
2023-01-21T18:36:50.754Z,99510.00
2023-01-21T18:39:19.878Z,99514.00
2023-01-21T18:41:46.369Z,99513.00
2023-01-21T18:44:13.047Z,99518.00
2023-01-21T18:46:42.332Z,99513.00
2023-01-21T18:49:11.951Z,99510.00
2023-01-21T18:51:38.385Z,99509.00
2023-01-21T18:54:05.039Z,99509.00
2023-01-21T18:56:31.509Z,99506.00
2023-01-21T18:58:58.006Z,99515.00
2023-01-21T19:01:24.502Z,99503.00
2023-01-21T19:03:53.568Z,99494.00
2023-01-21T19:06:20.790Z,99495.00
2023-01-21T19:08:48.740Z,99493.00
2023-01-21T19:11:16.419Z,99508.00
2023-01-21T19:13:42.929Z,99510.00
2023-01-21T19:16:15.724Z,99504.00
2023-01-21T19:18:42.322Z,99507.00
2023-01-21T19:21:08.839Z,99506.00
2023-01-21T19:23:35.766Z,99511.00
2023-01-21T19:26:02.467Z,99509.00
2023-01-21T19:28:29.103Z,99507.00
2023-01-21T19:30:55.916Z,99501.00
2023-01-21T19:33:23.613Z,99506.00
2023-01-21T19:36:00.412Z,99500.00
2023-01-21T19:38:27.283Z,99503.00
2023-01-21T19:40:55.217Z,99497.00
2023-01-21T19:43:22.166Z,99498.00
2023-01-21T19:45:51.077Z,99498.00
2023-01-21T19:48:19.720Z,99501.00
2023-01-21T19:50:47.002Z,99505.00
2023-01-21T19:53:15.549Z,99501.00
2023-01-21T19:55:43.045Z,99499.00
2023-01-21T19:58:22.366Z,99508.00
2023-01-21T20:00:50.436Z,99515.00
2023-01-21T20:03:18.909Z,99508.00
2023-01-21T20:05:47.906Z,99514.00
2023-01-21T20:08:23.660Z,99516.00
2023-01-21T20:10:50.463Z,99513.00
2023-01-21T20:13:18.448Z,99509.00
2023-01-21T20:15:47.205Z,99521.00
2023-01-21T20:18:42.359Z,99506.00
2023-01-21T20:21:08.949Z,99505.00
2023-01-21T20:23:36.449Z,99509.00
2023-01-21T20:26:05.949Z,99505.00
2023-01-21T20:28:43.261Z,99510.00
2023-01-21T20:31:10.912Z,99510.00
2023-01-21T20:33:37.531Z,99508.00
2023-01-21T20:36:06.983Z,99509.00
2023-01-21T20:38:35.842Z,99511.00
2023-01-21T20:41:03.867Z,99508.00
2023-01-21T20:43:31.711Z,99512.00
2023-01-21T20:46:02.620Z,99508.00
2023-01-21T20:48:35.724Z,99506.00
2023-01-21T20:51:03.574Z,99514.00
2023-01-21T20:53:30.820Z,99507.00
2023-01-21T20:55:59.477Z,99503.00
2023-01-21T20:58:27.981Z,99503.00
2023-01-21T21:00:54.852Z,99495.00
2023-01-21T21:03:21.385Z,99498.00
2023-01-21T21:05:48.869Z,99491.00
2023-01-21T21:08:18.113Z,99489.00
2023-01-21T21:10:44.918Z,99488.00
2023-01-21T21:13:13.175Z,99484.00
2023-01-21T21:15:41.033Z,99503.00
2023-01-21T21:18:07.536Z,99487.00
2023-01-21T21:20:36.934Z,99483.00
2023-01-21T21:23:04.279Z,99481.00
2023-01-21T21:25:32.851Z,99477.00
2023-01-21T21:27:59.518Z,99477.00
2023-01-21T21:30:31.652Z,99469.00
2023-01-21T21:33:00.887Z,99468.00
2023-01-21T21:35:28.621Z,99460.00
2023-01-21T21:37:57.952Z,99462.00
2023-01-21T21:40:27.001Z,99465.00
2023-01-21T21:43:13.072Z,99464.00
2023-01-21T21:46:00.186Z,99455.00
2023-01-21T21:48:38.880Z,99460.00
2023-01-21T21:51:07.554Z,99458.00
2023-01-21T21:53:34.165Z,99457.00
2023-01-21T21:56:05.593Z,99458.00
2023-01-21T21:58:32.286Z,99457.00
2023-01-21T22:01:08.864Z,99456.00
2023-01-21T22:03:36.480Z,99456.00
2023-01-21T22:06:04.039Z,99445.00
2023-01-21T22:08:35.348Z,99446.00
2023-01-21T22:11:04.172Z,99446.00
2023-01-21T22:13:33.228Z,99446.00
2023-01-21T22:16:00.837Z,99452.00
2023-01-21T22:18:29.265Z,99444.00
2023-01-21T22:21:06.275Z,99440.00
2023-01-21T22:23:34.829Z,99428.00
2023-01-21T22:26:02.473Z,99428.00
2023-01-21T22:28:29.220Z,99430.00
2023-01-21T22:31:01.337Z,99418.00
2023-01-21T22:33:27.816Z,99430.00
2023-01-21T22:35:54.272Z,99434.00
2023-01-21T22:38:20.726Z,99429.00
2023-01-21T22:40:53.449Z,99430.00
2023-01-21T22:43:20.987Z,99432.00
2023-01-21T22:45:48.373Z,99430.00
2023-01-21T22:48:15.607Z,99427.00
2023-01-21T22:50:44.399Z,99422.00
2023-01-21T22:53:12.337Z,99425.00
2023-01-21T22:55:39.125Z,99419.00
2023-01-21T22:58:06.422Z,99415.00
2023-01-21T23:00:39.101Z,99405.00
2023-01-21T23:03:07.723Z,99408.00
2023-01-21T23:05:35.437Z,99411.00
2023-01-21T23:08:02.003Z,99404.00
2023-01-21T23:10:28.576Z,99405.00
2023-01-21T23:12:55.355Z,99397.00
2023-01-21T23:15:22.928Z,99399.00
2023-01-21T23:17:49.887Z,99394.00
2023-01-21T23:20:17.881Z,99404.00
2023-01-21T23:22:45.285Z,99394.00
2023-01-21T23:25:15.963Z,99398.00
2023-01-21T23:27:42.424Z,99390.00
2023-01-21T23:30:09.842Z,99391.00
2023-01-21T23:32:36.344Z,99391.00
2023-01-21T23:35:02.984Z,99392.00
2023-01-21T23:37:29.504Z,99396.00
2023-01-21T23:39:56.006Z,99381.00
2023-01-21T23:42:23.674Z,99392.00
2023-01-21T23:44:50.601Z,99386.00
2023-01-21T23:47:18.045Z,99381.00
2023-01-21T23:49:44.596Z,99394.00
2023-01-21T23:52:12.438Z,99378.00
2023-01-21T23:54:43.252Z,99375.00
2023-01-21T23:57:12.629Z,99371.00
2023-01-21T23:59:39.226Z,99374.00
